Time;durP1;ratioP1;P1;durP2;ratioP2;P2;SDS_P1;SDS_P2;PMS_P1;PMS_P2;Temp;Humidity;BMP_temperature;BMP_pressure;BME280_temperature;BME280_humidity;BME280_pressure;Samples;Min_cycle;Max_cycle;Signal;HPM_P1;HPM_P2
2021/06/09 00:00:28;;;;;;;4.03;2.40;;;;;;;-140.79;100.00;63287.88;4922722;29;20036;-76
2021/06/09 00:02:53;;;;;;;4.13;2.72;;;;;;;-140.79;100.00;63287.88;4941255;29;20531;-77
2021/06/09 00:05:19;;;;;;;2.70;2.40;;;;;;;-140.79;100.00;63287.88;4942299;29;20031;-75
2021/06/09 00:07:44;;;;;;;3.65;2.50;;;;;;;-140.79;100.00;63287.88;4943568;29;20028;-76
2021/06/09 00:10:10;;;;;;;3.78;2.40;;;;;;;-140.79;100.00;63287.88;4945189;29;20027;-75
2021/06/09 00:12:35;;;;;;;5.28;2.33;;;;;;;-140.79;100.00;63287.88;4945181;28;20508;-75
2021/06/09 00:15:01;;;;;;;2.95;2.33;;;;;;;-140.79;100.00;63287.88;4927029;29;20035;-76
2021/06/09 00:17:26;;;;;;;2.92;2.33;;;;;;;-140.79;100.00;63287.88;4934839;29;20522;-75
2021/06/09 00:19:52;;;;;;;2.92;2.35;;;;;;;-140.79;100.00;63287.88;4946796;29;20031;-74
2021/06/09 00:22:17;;;;;;;4.90;2.38;;;;;;;-140.79;100.00;63287.88;4926181;29;20031;-76
2021/06/09 00:24:45;;;;;;;3.10;2.33;;;;;;;-140.79;100.00;63287.88;4924026;29;20437;-76
2021/06/09 00:27:10;;;;;;;6.07;2.63;;;;;;;-140.79;100.00;63287.88;4922812;29;20492;-76
2021/06/09 00:29:35;;;;;;;2.90;2.08;;;;;;;-140.79;100.00;63287.88;4939853;29;20094;-75
2021/06/09 00:32:02;;;;;;;4.53;2.50;;;;;;;-140.79;100.00;63287.88;4924806;29;20510;-75
2021/06/09 00:34:27;;;;;;;3.30;2.40;;;;;;;-140.79;100.00;63287.88;4942117;29;20019;-76
2021/06/09 00:36:53;;;;;;;3.33;2.28;;;;;;;-140.79;100.00;63287.88;4939880;29;20038;-76
2021/06/09 00:39:18;;;;;;;3.17;2.50;;;;;;;-140.79;100.00;63287.88;4923738;29;20058;-76
2021/06/09 00:41:44;;;;;;;3.70;2.78;;;;;;;-140.79;100.00;63287.88;4940175;29;20031;-77
2021/06/09 00:44:09;;;;;;;5.60;2.55;;;;;;;-140.79;100.00;63287.88;4923956;29;20047;-76
2021/06/09 00:46:36;;;;;;;3.78;2.70;;;;;;;-140.79;100.00;63287.88;4923325;29;20418;-76
2021/06/09 00:49:02;;;;;;;3.25;2.70;;;;;;;-140.79;100.00;63287.88;4940292;29;20032;-76
2021/06/09 00:51:27;;;;;;;3.50;2.47;;;;;;;-140.79;100.00;63287.88;4924060;29;20042;-75
2021/06/09 00:54:04;;;;;;;3.80;2.47;;;;;;;-140.79;100.00;63287.88;4922329;29;20028;-76
2021/06/09 00:56:30;;;;;;;4.68;2.70;;;;;;;-140.79;100.00;63287.88;4940210;29;20038;-76
2021/06/09 00:58:55;;;;;;;7.28;2.72;;;;;;;-140.79;100.00;63287.88;4930633;29;20035;-77
2021/06/09 01:01:26;;;;;;;5.25;2.92;;;;;;;-140.79;100.00;63287.88;4940308;29;20042;-75
2021/06/09 01:03:51;;;;;;;4.55;2.50;;;;;;;-140.79;100.00;63287.88;4939856;29;20431;-76
2021/06/09 01:06:17;;;;;;;3.53;2.58;;;;;;;-140.79;100.00;63287.88;4940240;29;20039;-77
2021/06/09 01:08:43;;;;;;;5.78;2.90;;;;;;;-140.79;100.00;63287.88;4940715;29;20243;-75
2021/06/09 01:11:17;;;;;;;3.75;3.20;;;;;;;-140.79;100.00;63287.88;4939991;29;20051;-76
2021/06/09 01:13:43;;;;;;;3.80;2.72;;;;;;;-140.79;100.00;63287.88;4922354;29;20563;-75
2021/06/09 01:16:09;;;;;;;3.20;2.40;;;;;;;-140.79;100.00;63287.88;4939867;29;20509;-76
2021/06/09 01:18:35;;;;;;;4.00;2.40;;;;;;;-140.79;100.00;63287.88;4923247;29;20051;-76
2021/06/09 01:21:00;;;;;;;4.60;2.40;;;;;;;-140.79;100.00;63287.88;4942995;29;20059;-76
2021/06/09 01:23:26;;;;;;;3.70;2.50;;;;;;;-140.79;100.00;63287.88;4939263;28;20526;-76
2021/06/09 01:25:52;;;;;;;4.35;2.58;;;;;;;-140.79;100.00;63287.88;4940021;29;20457;-76
2021/06/09 01:28:17;;;;;;;5.55;2.65;;;;;;;-140.79;100.00;63287.88;4921932;29;20067;-76
2021/06/09 01:30:43;;;;;;;3.88;2.58;;;;;;;-140.79;100.00;63287.88;4922988;29;20031;-76
2021/06/09 01:33:09;;;;;;;4.47;3.05;;;;;;;-140.79;100.00;63287.88;4939457;29;20081;-77
2021/06/09 01:35:34;;;;;;;3.55;2.75;;;;;;;-140.79;100.00;63287.88;4922472;29;20034;-77
2021/06/09 01:38:00;;;;;;;3.92;2.70;;;;;;;-140.79;100.00;63287.88;4939591;29;20118;-76
2021/06/09 01:40:26;;;;;;;4.63;2.85;;;;;;;-140.79;100.00;63287.88;4937935;29;21041;-77
2021/06/09 01:42:51;;;;;;;5.38;2.85;;;;;;;-140.79;100.00;63287.88;4939792;29;20488;-76
2021/06/09 01:45:22;;;;;;;4.15;2.60;;;;;;;-140.79;100.00;63287.88;4921393;29;20500;-77
2021/06/09 01:47:47;;;;;;;4.40;2.67;;;;;;;-140.79;100.00;63287.88;4922650;29;20027;-77
2021/06/09 01:50:14;;;;;;;4.15;2.42;;;;;;;-140.79;100.00;63287.88;4937608;29;20035;-76
2021/06/09 01:52:40;;;;;;;4.30;2.47;;;;;;;-140.79;100.00;63287.88;4921698;29;20031;-76
2021/06/09 01:55:07;;;;;;;5.28;2.85;;;;;;;-140.79;100.00;63287.88;4938067;29;20027;-76
2021/06/09 01:57:32;;;;;;;4.25;2.75;;;;;;;-140.79;100.00;63287.88;4940222;29;20023;-76
2021/06/09 01:59:58;;;;;;;4.85;2.72;;;;;;;-140.79;100.00;63287.88;4939323;29;20030;-76
2021/06/09 02:02:24;;;;;;;6.07;2.78;;;;;;;-140.79;100.00;63287.88;4939166;29;20114;-76
2021/06/09 02:04:49;;;;;;;4.63;2.78;;;;;;;-140.79;100.00;63287.88;4938205;29;20067;-76
2021/06/09 02:07:15;;;;;;;3.63;2.70;;;;;;;-140.79;100.00;63287.88;4937691;29;20027;-75
2021/06/09 02:09:40;;;;;;;3.35;2.67;;;;;;;-140.79;100.00;63287.88;4938663;29;20139;-76
2021/06/09 02:12:06;;;;;;;3.60;2.53;;;;;;;-140.79;100.00;63287.88;4937982;29;20507;-76
2021/06/09 02:14:32;;;;;;;3.55;2.63;;;;;;;-140.79;100.00;63287.88;4938886;29;20146;-76
2021/06/09 02:16:58;;;;;;;3.95;2.30;;;;;;;-140.79;100.00;63287.88;4939019;29;20115;-76
2021/06/09 02:19:23;;;;;;;3.83;2.60;;;;;;;-140.79;100.00;63287.88;4937691;29;20023;-76
2021/06/09 02:21:49;;;;;;;3.92;2.38;;;;;;;-140.79;100.00;63287.88;4921399;29;20200;-76
2021/06/09 02:24:14;;;;;;;5.20;3.00;;;;;;;-140.79;100.00;63287.88;4921919;29;20107;-77
2021/06/09 02:26:41;;;;;;;3.92;2.55;;;;;;;-140.79;100.00;63287.88;4920790;29;20503;-76
2021/06/09 02:29:07;;;;;;;4.13;2.63;;;;;;;-140.79;100.00;63287.88;4939416;29;20049;-77
2021/06/09 02:31:33;;;;;;;4.78;3.00;;;;;;;-140.79;100.00;63287.88;4938850;29;20035;-76
2021/06/09 02:33:59;;;;;;;4.10;2.63;;;;;;;-140.79;100.00;63287.88;4921610;29;20031;-76
2021/06/09 02:36:24;;;;;;;6.60;3.10;;;;;;;-140.79;100.00;63287.88;4924120;29;20024;-74
2021/06/09 02:38:50;;;;;;;3.78;2.55;;;;;;;-140.79;100.00;63287.88;4943090;29;20046;-76
2021/06/09 02:41:16;;;;;;;4.38;2.60;;;;;;;-140.79;100.00;63287.88;4942685;29;20027;-76
2021/06/09 02:43:41;;;;;;;3.42;2.70;;;;;;;-140.79;100.00;63287.88;4925354;29;20114;-76
2021/06/09 02:46:13;;;;;;;4.85;3.28;;;;;;;-140.79;100.00;63287.88;4943067;29;20796;-76
2021/06/09 02:48:41;;;;;;;5.28;2.92;;;;;;;-140.79;100.00;63287.88;4943032;29;20039;-76
2021/06/09 02:51:06;;;;;;;4.75;3.47;;;;;;;-140.79;100.00;63287.88;4926127;29;20031;-77
2021/06/09 02:53:34;;;;;;;5.55;3.42;;;;;;;-140.79;100.00;63287.88;4925178;29;20030;-77
2021/06/09 02:56:08;;;;;;;5.93;3.33;;;;;;;-140.79;100.00;63287.88;4941380;29;20044;-76
2021/06/09 02:59:04;;;;;;;3.95;3.28;;;;;;;-140.79;100.00;63287.88;4942430;29;20028;-76
2021/06/09 03:01:58;;;;;;;5.80;3.65;;;;;;;-140.79;100.00;63287.88;4925477;29;20115;-76
2021/06/09 03:04:32;;;;;;;5.15;4.00;;;;;;;-140.79;100.00;63287.88;4926089;29;20051;-76
2021/06/09 03:07:22;;;;;;;5.32;3.95;;;;;;;-140.79;100.00;63287.88;4942537;29;20123;-76
2021/06/09 03:09:56;;;;;;;6.93;4.40;;;;;;;-140.79;100.00;63287.88;4941690;29;20038;-76
2021/06/09 03:12:38;;;;;;;6.38;4.82;;;;;;;-140.79;100.00;63287.88;4924230;29;20046;-76
2021/06/09 03:15:13;;;;;;;6.90;4.63;;;;;;;-140.79;100.00;63287.88;4941482;29;20091;-76
2021/06/09 03:17:47;;;;;;;6.90;5.50;;;;;;;-140.79;100.00;63287.88;4942720;29;20610;-77
2021/06/09 03:20:21;;;;;;;7.18;5.40;;;;;;;-140.79;100.00;63287.88;4922517;29;20051;-77
2021/06/09 03:22:51;;;;;;;6.53;5.05;;;;;;;-140.79;100.00;63287.88;4941699;29;20035;-79
2021/06/09 03:25:22;;;;;;;6.82;4.82;;;;;;;-140.79;100.00;63287.88;4946249;29;20090;-81
2021/06/09 03:27:55;;;;;;;8.93;5.38;;;;;;;-140.79;100.00;63287.88;4917878;29;20098;-83
2021/06/09 03:30:20;;;;;;;7.32;5.22;;;;;;;-140.79;100.00;63287.88;4947065;29;20052;-82
2021/06/09 03:33:04;;;;;;;7.53;5.38;;;;;;;-140.79;100.00;63287.88;4912069;29;20057;-85
2021/06/09 03:35:39;;;;;;;7.45;5.50;;;;;;;-140.79;100.00;63287.88;4945700;29;20042;-84
2021/06/09 03:38:06;;;;;;;6.13;5.05;;;;;;;-140.79;100.00;63287.88;4931574;29;20415;-82
2021/06/09 03:40:40;;;;;;;6.65;5.10;;;;;;;-140.79;100.00;63287.88;4926055;29;20031;-75
2021/06/09 03:43:08;;;;;;;6.95;5.30;;;;;;;-140.79;100.00;63287.88;4924440;29;20086;-76
2021/06/09 03:45:34;;;;;;;6.28;5.05;;;;;;;-140.79;100.00;63287.88;4941128;29;20034;-77
2021/06/09 03:48:00;;;;;;;6.85;4.78;;;;;;;-140.79;100.00;63287.88;4924461;29;20031;-76
2021/06/09 03:50:25;;;;;;;6.47;5.10;;;;;;;-140.79;100.00;63287.88;4924632;29;20028;-79
2021/06/09 03:52:51;;;;;;;7.45;5.10;;;;;;;-140.79;100.00;63287.88;4912593;29;20027;-77
2021/06/09 03:55:20;;;;;;;7.57;5.10;;;;;;;-140.79;100.00;63287.88;4943315;29;20030;-76
2021/06/09 03:57:46;;;;;;;6.63;4.47;;;;;;;-140.79;100.00;63287.88;4928233;29;20091;-77
2021/06/09 04:00:11;;;;;;;7.30;4.45;;;;;;;-140.79;100.00;63287.88;4923932;29;20464;-76
2021/06/09 04:02:37;;;;;;;5.80;4.70;;;;;;;-140.79;100.00;63287.88;4913308;29;20297;-76
2021/06/09 04:05:03;;;;;;;9.57;4.97;;;;;;;-140.79;100.00;63287.88;4926121;29;20032;-76
2021/06/09 04:07:28;;;;;;;6.85;4.93;;;;;;;-140.79;100.00;63287.88;4941307;29;20483;-78
2021/06/09 04:09:54;;;;;;;7.05;4.63;;;;;;;-140.79;100.00;63287.88;4922321;29;20549;-80
2021/06/09 04:12:20;;;;;;;5.70;4.38;;;;;;;-140.79;100.00;63287.88;4941929;29;20039;-76
2021/06/09 04:14:47;;;;;;;7.22;4.47;;;;;;;-140.79;100.00;63287.88;4931163;29;20499;-76
2021/06/09 04:17:14;;;;;;;6.93;5.07;;;;;;;-140.79;100.00;63287.88;4940860;29;20812;-76
2021/06/09 04:19:42;;;;;;;7.80;4.38;;;;;;;-140.79;100.00;63287.88;4942454;29;20035;-75
2021/06/09 04:22:08;;;;;;;5.68;4.78;;;;;;;-140.79;100.00;63287.88;4923717;29;20142;-76
2021/06/09 04:24:34;;;;;;;6.05;4.68;;;;;;;-140.79;100.00;63287.88;4943964;29;20028;-75
2021/06/09 04:26:59;;;;;;;6.90;4.45;;;;;;;-140.79;100.00;63287.88;4924780;29;20495;-77
2021/06/09 04:29:25;;;;;;;5.68;4.60;;;;;;;-140.79;100.00;63287.88;4923244;29;20114;-81
2021/06/09 04:31:51;;;;;;;7.00;4.63;;;;;;;-140.79;100.00;63287.88;4926206;29;20042;-78
2021/06/09 04:34:16;;;;;;;6.88;4.78;;;;;;;-140.79;100.00;63287.88;4942536;29;20024;-78
2021/06/09 04:36:42;;;;;;;6.53;4.20;;;;;;;-140.79;100.00;63287.88;4941185;29;20035;-76
2021/06/09 04:39:10;;;;;;;5.45;4.65;;;;;;;-140.79;100.00;63287.88;4940686;29;20034;-76
2021/06/09 04:41:35;;;;;;;6.07;4.93;;;;;;;-140.79;100.00;63287.88;4941299;29;20114;-76
2021/06/09 04:44:01;;;;;;;6.80;4.50;;;;;;;-140.79;100.00;63287.88;4938815;29;20027;-75
2021/06/09 04:46:26;;;;;;;7.03;4.55;;;;;;;-140.79;100.00;63287.88;4939537;29;20415;-78
2021/06/09 04:49:10;;;;;;;6.97;3.85;;;;;;;-140.79;100.00;63287.88;4923075;29;20148;-77
2021/06/09 04:51:37;;;;;;;4.45;3.47;;;;;;;-140.79;100.00;63287.88;4923241;29;20043;-77
2021/06/09 04:54:05;;;;;;;4.80;3.40;;;;;;;-140.79;100.00;63287.88;4939338;29;20031;-76
2021/06/09 04:56:35;;;;;;;6.50;3.10;;;;;;;-140.79;100.00;63287.88;4941426;29;20027;-76
2021/06/09 04:59:05;;;;;;;4.65;3.13;;;;;;;-140.79;100.00;63287.88;4939734;28;20027;-75
2021/06/09 05:01:30;;;;;;;5.10;3.08;;;;;;;-140.79;100.00;63287.88;4925323;29;20054;-76
2021/06/09 05:03:59;;;;;;;4.50;2.78;;;;;;;-140.79;100.00;63287.88;4924049;29;20523;-76
2021/06/09 05:06:25;;;;;;;4.97;3.00;;;;;;;-140.79;100.00;63287.88;4940804;29;20030;-76
2021/06/09 05:08:51;;;;;;;4.13;2.83;;;;;;;-140.79;100.00;63287.88;4939705;29;20039;-77
2021/06/09 05:11:20;;;;;;;3.63;2.85;;;;;;;-140.79;100.00;63287.88;4941429;29;20031;-75
2021/06/09 05:13:45;;;;;;;4.70;3.15;;;;;;;-140.79;100.00;63287.88;4923268;29;20028;-76
2021/06/09 05:16:12;;;;;;;4.18;2.90;;;;;;;-140.79;100.00;63287.88;4924821;29;20471;-76
2021/06/09 05:18:41;;;;;;;4.85;2.72;;;;;;;-140.79;100.00;63287.88;4926794;29;20285;-76
2021/06/09 05:21:06;;;;;;;3.72;2.67;;;;;;;-140.79;100.00;63287.88;4927063;29;20408;-77
2021/06/09 05:23:33;;;;;;;4.07;2.85;;;;;;;-140.79;100.00;63287.88;4924229;29;20086;-75
2021/06/09 05:25:59;;;;;;;3.47;2.70;;;;;;;-140.79;100.00;63287.88;4916132;29;20055;-76
2021/06/09 05:28:26;;;;;;;5.20;2.63;;;;;;;-140.79;100.00;63287.88;4922106;29;20526;-76
2021/06/09 05:30:56;;;;;;;4.10;2.63;;;;;;;-140.79;100.00;63287.88;4930266;29;20031;-75
2021/06/09 05:33:21;;;;;;;4.35;2.45;;;;;;;-140.79;100.00;63287.88;4923217;29;20039;-77
2021/06/09 05:35:48;;;;;;;3.30;2.63;;;;;;;-140.79;100.00;63287.88;4939737;29;20043;-73
2021/06/09 05:38:13;;;;;;;3.70;2.35;;;;;;;-140.79;100.00;63287.88;4911122;29;20090;-77
2021/06/09 05:40:39;;;;;;;3.05;2.38;;;;;;;-140.79;100.00;63287.88;4926534;29;20559;-74
2021/06/09 05:43:04;;;;;;;2.97;2.63;;;;;;;-140.79;100.00;63287.88;4926159;29;20027;-76
2021/06/09 05:45:32;;;;;;;4.50;2.38;;;;;;;-140.79;100.00;63287.88;4926409;29;20023;-75
2021/06/09 05:47:58;;;;;;;3.60;2.55;;;;;;;-140.79;100.00;63287.88;4941006;29;20490;-78
2021/06/09 05:50:25;;;;;;;4.25;2.60;;;;;;;-140.79;100.00;63287.88;4916062;29;20123;-75
2021/06/09 05:52:53;;;;;;;2.92;2.50;;;;;;;-140.79;100.00;63287.88;4940761;29;20034;-77
2021/06/09 05:55:20;;;;;;;3.20;2.63;;;;;;;-140.79;100.00;63287.88;4923568;29;20028;-75
2021/06/09 05:57:46;;;;;;;3.45;2.60;;;;;;;-140.79;100.00;63287.88;4931626;29;20027;-75
2021/06/09 06:00:12;;;;;;;3.03;2.30;;;;;;;-140.79;100.00;63287.88;4938197;29;20562;-75
2021/06/09 06:02:38;;;;;;;2.83;2.33;;;;;;;-140.79;100.00;63287.88;4940910;29;20130;-76
2021/06/09 06:05:05;;;;;;;3.67;2.70;;;;;;;-140.79;100.00;63287.88;4926568;29;20043;-76
2021/06/09 06:07:31;;;;;;;3.90;2.70;;;;;;;-140.79;100.00;63287.88;4922005;29;20045;-77
2021/06/09 06:09:56;;;;;;;3.45;2.50;;;;;;;-140.79;100.00;63287.88;4922929;29;20035;-75
2021/06/09 06:12:28;;;;;;;3.08;2.70;;;;;;;-140.79;100.00;63287.88;4910622;29;20067;-74
2021/06/09 06:14:53;;;;;;;3.63;2.65;;;;;;;-140.79;100.00;63287.88;4923669;29;20102;-76
2021/06/09 06:17:19;;;;;;;3.33;2.40;;;;;;;-140.79;100.00;63287.88;4925762;29;20470;-76
2021/06/09 06:19:48;;;;;;;3.03;2.72;;;;;;;-140.79;100.00;63287.88;4929291;29;20430;-76
2021/06/09 06:22:14;;;;;;;3.83;2.35;;;;;;;-140.79;100.00;63287.88;4913488;29;20035;-73
2021/06/09 06:24:40;;;;;;;3.17;2.55;;;;;;;-140.79;100.00;63287.88;4925357;29;20102;-75
2021/06/09 06:27:10;;;;;;;3.90;2.47;;;;;;;-140.79;100.00;63287.88;4941887;29;20035;-75
2021/06/09 06:29:37;;;;;;;4.85;2.63;;;;;;;-140.79;100.00;63287.88;4923333;29;20090;-84
2021/06/09 06:32:07;;;;;;;3.80;2.33;;;;;;;-140.79;100.00;63287.88;4929164;29;20039;-77
2021/06/09 06:34:35;;;;;;;5.35;2.90;;;;;;;-140.79;100.00;63287.88;4944311;29;20026;-75
2021/06/09 06:37:00;;;;;;;4.90;2.50;;;;;;;-140.79;100.00;63287.88;4944323;29;20039;-78
2021/06/09 06:39:25;;;;;;;3.25;2.40;;;;;;;-140.79;100.00;63287.88;4924703;29;20498;-79
2021/06/09 06:41:51;;;;;;;3.10;2.50;;;;;;;-140.79;100.00;63287.88;4928317;29;20043;-77
2021/06/09 06:44:17;;;;;;;3.45;2.60;;;;;;;-140.79;100.00;63287.88;4928453;29;20031;-76
2021/06/09 06:46:42;;;;;;;3.55;2.28;;;;;;;-140.79;100.00;63287.88;4931410;29;20076;-77
2021/06/09 06:49:08;;;;;;;2.75;2.35;;;;;;;-140.79;100.00;63287.88;4940629;29;20063;-76
2021/06/09 06:51:33;;;;;;;3.65;2.47;;;;;;;-140.79;100.00;63287.88;4912204;29;20043;-77
2021/06/09 06:53:59;;;;;;;3.45;2.45;;;;;;;-140.79;100.00;63287.88;4926175;29;20512;-78
2021/06/09 06:56:25;;;;;;;4.43;2.40;;;;;;;-140.79;100.00;63287.88;4925373;29;20802;-76
2021/06/09 06:58:51;;;;;;;3.80;2.50;;;;;;;-140.79;100.00;63287.88;4925386;29;20039;-78
2021/06/09 07:01:21;;;;;;;3.08;2.42;;;;;;;-140.79;100.00;63287.88;4923834;29;20039;-76
2021/06/09 07:03:47;;;;;;;3.90;2.40;;;;;;;-140.79;100.00;63287.88;4922239;29;20058;-76
2021/06/09 07:06:12;;;;;;;3.15;2.20;;;;;;;-140.79;100.00;63287.88;4925782;29;20027;-78
2021/06/09 07:08:38;;;;;;;2.92;2.42;;;;;;;-140.79;100.00;63287.88;4929647;29;20020;-77
2021/06/09 07:11:03;;;;;;;3.42;2.42;;;;;;;-140.79;100.00;63287.88;4925259;29;20495;-77
2021/06/09 07:13:29;;;;;;;3.88;2.20;;;;;;;-140.79;100.00;63287.88;4907989;29;20407;-78
2021/06/09 07:15:55;;;;;;;2.75;2.28;;;;;;;-140.79;100.00;63287.88;4942756;29;20023;-77
2021/06/09 07:18:23;;;;;;;3.47;2.75;;;;;;;-140.79;100.00;63287.88;4928131;29;20039;-78
2021/06/09 07:20:49;;;;;;;2.65;2.17;;;;;;;-140.79;100.00;63287.88;4927487;29;20043;-79
2021/06/09 07:23:14;;;;;;;3.25;2.40;;;;;;;-140.79;100.00;63287.88;4925670;29;20102;-77
2021/06/09 07:25:40;;;;;;;2.88;2.35;;;;;;;-140.79;100.00;63287.88;4928588;29;20047;-78
2021/06/09 07:28:05;;;;;;;3.05;2.53;;;;;;;-140.79;100.00;63287.88;4910990;29;20910;-77
2021/06/09 07:30:34;;;;;;;3.30;2.42;;;;;;;-140.79;100.00;63287.88;4925258;29;20039;-77
2021/06/09 07:33:01;;;;;;;3.20;2.53;;;;;;;-140.79;100.00;63287.88;4946884;29;20023;-77
2021/06/09 07:35:26;;;;;;;3.13;2.63;;;;;;;-140.79;100.00;63287.88;4935004;29;20035;-74
2021/06/09 07:37:54;;;;;;;3.30;2.40;;;;;;;-140.79;100.00;63287.88;4943516;29;20081;-76
2021/06/09 07:40:22;;;;;;;2.80;2.50;;;;;;;-140.79;100.00;63287.88;4940865;29;20110;-78
2021/06/09 07:42:53;;;;;;;3.53;2.25;;;;;;;-140.79;100.00;63287.88;4933795;29;20027;-78
2021/06/09 07:45:20;;;;;;;2.90;2.30;;;;;;;-140.79;100.00;63287.88;4940457;29;20043;-75
2021/06/09 07:47:46;;;;;;;3.53;2.30;;;;;;;-140.79;100.00;63287.88;4946623;29;20118;-77
2021/06/09 07:50:13;;;;;;;5.05;2.60;;;;;;;-140.79;100.00;63287.88;4930493;29;20059;-77
2021/06/09 07:52:39;;;;;;;3.50;2.40;;;;;;;-140.79;100.00;63287.88;4941717;29;20031;-76
2021/06/09 07:55:05;;;;;;;4.50;2.40;;;;;;;-140.79;100.00;63287.88;4925384;29;20431;-76
2021/06/09 07:57:32;;;;;;;4.38;2.50;;;;;;;-140.79;100.00;63287.88;4942749;29;20025;-77
2021/06/09 07:59:59;;;;;;;4.22;2.58;;;;;;;-140.79;100.00;63287.88;4944403;29;20498;-75
2021/06/09 08:02:24;;;;;;;3.95;2.60;;;;;;;-140.79;100.00;63287.88;4926301;29;20158;-77
2021/06/09 08:04:50;;;;;;;3.42;2.72;;;;;;;-140.79;100.00;63287.88;4944662;29;20102;-77
2021/06/09 08:07:16;;;;;;;4.10;2.40;;;;;;;-140.79;100.00;63287.88;4928192;29;20062;-77
2021/06/09 08:09:42;;;;;;;3.63;2.45;;;;;;;-140.79;100.00;63287.88;4927358;29;20055;-77
2021/06/09 08:12:07;;;;;;;2.85;2.50;;;;;;;-140.79;100.00;63287.88;4945991;29;20090;-76
2021/06/09 08:14:33;;;;;;;3.35;2.50;;;;;;;-140.79;100.00;63287.88;4925526;29;20063;-76
2021/06/09 08:16:59;;;;;;;2.65;2.25;;;;;;;-140.79;100.00;63287.88;4946513;29;20031;-77
2021/06/09 08:19:24;;;;;;;3.88;3.13;;;;;;;-140.79;100.00;63287.88;4944395;29;20133;-76
2021/06/09 08:21:50;;;;;;;3.45;2.75;;;;;;;-140.79;100.00;63287.88;4942036;29;20104;-76
2021/06/09 08:24:15;;;;;;;3.85;2.45;;;;;;;-140.79;100.00;63287.88;4941831;29;20031;-77
2021/06/09 08:26:42;;;;;;;3.22;2.70;;;;;;;-140.79;100.00;63287.88;4940860;29;20036;-76
2021/06/09 08:29:08;;;;;;;3.85;2.47;;;;;;;-140.79;100.00;63287.88;4940967;29;20428;-77
2021/06/09 08:31:34;;;;;;;3.30;2.50;;;;;;;-140.79;100.00;63287.88;4938999;29;20114;-76
2021/06/09 08:34:00;;;;;;;3.42;2.35;;;;;;;-140.79;100.00;63287.88;4930053;29;20042;-77
2021/06/09 08:36:26;;;;;;;3.53;2.55;;;;;;;-140.79;100.00;63287.88;4924666;29;20043;-77
2021/06/09 08:38:55;;;;;;;4.63;2.75;;;;;;;-140.79;100.00;63287.88;4941629;29;20071;-77
2021/06/09 08:41:22;;;;;;;3.05;2.25;;;;;;;-140.79;100.00;63287.88;4942064;29;20035;-76
2021/06/09 08:43:48;;;;;;;3.22;2.63;;;;;;;-140.79;100.00;63287.88;4944516;29;20079;-76
2021/06/09 08:46:14;;;;;;;3.13;2.78;;;;;;;-140.79;100.00;63287.88;4942893;29;20027;-77
2021/06/09 08:48:41;;;;;;;4.00;2.50;;;;;;;-140.79;100.00;63287.88;4944457;29;20042;-77
2021/06/09 08:51:08;;;;;;;3.40;2.83;;;;;;;-140.79;100.00;63287.88;4941943;29;20046;-77
2021/06/09 08:53:34;;;;;;;3.65;2.90;;;;;;;-140.79;100.00;63287.88;4915114;29;20031;-77
2021/06/09 08:55:59;;;;;;;3.45;2.70;;;;;;;-140.79;100.00;63287.88;4940303;29;20035;-77
2021/06/09 08:58:25;;;;;;;3.33;2.42;;;;;;;-140.79;100.00;63287.88;4921654;29;20036;-76
2021/06/09 09:00:50;;;;;;;4.38;2.63;;;;;;;-140.79;100.00;63287.88;4922548;29;20027;-78
2021/06/09 09:03:16;;;;;;;6.57;2.63;;;;;;;-140.79;100.00;63287.88;4938773;29;20062;-73
2021/06/09 09:05:41;;;;;;;5.30;3.47;;;;;;;-140.79;100.00;63287.88;4940831;29;20035;-72
2021/06/09 09:08:08;;;;;;;4.85;3.28;;;;;;;-140.79;100.00;63287.88;4924661;29;20040;-72
2021/06/09 09:10:33;;;;;;;5.65;2.97;;;;;;;-140.79;100.00;63287.88;4939044;29;20581;-73
2021/06/09 09:12:59;;;;;;;3.78;3.08;;;;;;;-140.79;100.00;63287.88;4939909;29;20126;-72
2021/06/09 09:15:24;;;;;;;6.18;3.30;;;;;;;-140.79;100.00;63287.88;4925059;29;20514;-72
2021/06/09 09:18:03;;;;;;;3.78;2.70;;;;;;;-140.79;100.00;63287.88;4926511;29;20423;-72
2021/06/09 09:20:32;;;;;;;3.50;2.50;;;;;;;-140.79;100.00;63287.88;4942286;29;20069;-72
2021/06/09 09:22:58;;;;;;;5.72;3.05;;;;;;;-140.79;100.00;63287.88;4942104;29;20067;-71
2021/06/09 09:25:26;;;;;;;4.97;2.72;;;;;;;-140.79;100.00;63287.88;4916422;29;20095;-69
2021/06/09 09:27:53;;;;;;;3.38;2.63;;;;;;;-140.79;100.00;63287.88;4922617;29;20031;-70
2021/06/09 09:30:19;;;;;;;4.20;3.22;;;;;;;-140.79;100.00;63287.88;4938876;29;20046;-70
2021/06/09 09:33:14;;;;;;;6.78;2.53;;;;;;;-140.79;100.00;63287.88;4939725;29;20064;-70
2021/06/09 09:35:43;;;;;;;4.30;2.63;;;;;;;-140.79;100.00;63287.88;4940215;29;20043;-70
2021/06/09 09:38:28;;;;;;;5.43;3.20;;;;;;;-140.79;100.00;63287.88;4940018;29;20106;-69
2021/06/09 09:41:08;;;;;;;3.25;2.53;;;;;;;-140.79;100.00;63287.88;4914420;29;20530;-70
2021/06/09 09:43:56;;;;;;;5.22;2.80;;;;;;;-140.79;100.00;63287.88;4940115;29;20066;-70
2021/06/09 09:46:32;;;;;;;3.40;2.72;;;;;;;-140.79;100.00;63287.88;4923471;29;20047;-70
2021/06/09 09:49:08;;;;;;;4.53;3.28;;;;;;;-140.79;100.00;63287.88;4939051;29;20028;-69
2021/06/09 09:51:39;;;;;;;4.60;2.63;;;;;;;-140.79;100.00;63287.88;4922959;29;20581;-69
2021/06/09 09:54:06;;;;;;;5.25;2.53;;;;;;;-140.79;100.00;63287.88;4940131;29;20027;-70
2021/06/09 09:56:34;;;;;;;5.30;2.72;;;;;;;-140.79;100.00;63287.88;4939831;29;20090;-70
2021/06/09 09:59:05;;;;;;;4.43;2.97;;;;;;;-140.79;100.00;63287.88;4923647;29;20035;-70
2021/06/09 10:01:42;;;;;;;3.65;2.22;;;;;;;-140.79;100.00;63287.88;4939613;29;20580;-70
2021/06/09 10:04:08;;;;;;;3.42;2.33;;;;;;;-140.79;100.00;63287.88;4936736;28;20793;-70
2021/06/09 10:06:37;;;;;;;4.20;2.75;;;;;;;-140.79;100.00;63287.88;4940351;29;20039;-70
2021/06/09 10:09:15;;;;;;;6.03;2.50;;;;;;;-140.79;100.00;63287.88;4940014;29;20039;-70
2021/06/09 10:11:45;;;;;;;5.53;2.78;;;;;;;-140.79;100.00;63287.88;4940073;29;20063;-69
2021/06/09 10:14:18;;;;;;;3.67;2.30;;;;;;;-140.79;100.00;63287.88;4938318;29;20042;-70
2021/06/09 10:16:45;;;;;;;3.65;2.60;;;;;;;-140.79;100.00;63287.88;4939952;29;20503;-71
2021/06/09 10:19:12;;;;;;;4.57;2.60;;;;;;;-140.79;100.00;63287.88;4937568;29;20043;-70
2021/06/09 10:21:48;;;;;;;3.35;2.30;;;;;;;-140.79;100.00;63287.88;4940320;29;20082;-72
2021/06/09 10:24:14;;;;;;;4.72;2.60;;;;;;;-140.79;100.00;63287.88;4937181;29;20118;-71
2021/06/09 10:26:42;;;;;;;3.85;2.35;;;;;;;-140.79;100.00;63287.88;4938953;29;20529;-71
2021/06/09 10:29:16;;;;;;;3.17;2.50;;;;;;;-140.79;100.00;63287.88;4921994;29;20526;-74
2021/06/09 10:31:45;;;;;;;3.00;2.05;;;;;;;-140.79;100.00;63287.88;4939582;29;20502;-71
2021/06/09 10:34:11;;;;;;;3.10;2.20;;;;;;;-140.79;100.00;63287.88;4911952;29;20074;-74
2021/06/09 10:36:42;;;;;;;3.90;2.40;;;;;;;-140.79;100.00;63287.88;4938585;29;20580;-74
2021/06/09 10:39:08;;;;;;;5.93;2.47;;;;;;;-140.79;100.00;63287.88;4937372;29;20115;-74
2021/06/09 10:41:33;;;;;;;6.18;2.90;;;;;;;-140.79;100.00;63287.88;4939926;29;20113;-74
2021/06/09 10:44:02;;;;;;;4.47;2.40;;;;;;;-140.79;100.00;63287.88;4937035;29;20030;-74
2021/06/09 10:46:27;;;;;;;3.42;2.08;;;;;;;-140.79;100.00;63287.88;4922854;29;20042;-74
2021/06/09 10:48:55;;;;;;;3.65;2.40;;;;;;;-140.79;100.00;63287.88;4921543;29;20023;-74
2021/06/09 10:51:21;;;;;;;3.92;2.33;;;;;;;-140.79;100.00;63287.88;4922862;29;20121;-74
2021/06/09 10:53:46;;;;;;;2.88;2.20;;;;;;;-140.79;100.00;63287.88;4921583;29;20035;-74
2021/06/09 10:56:15;;;;;;;4.75;2.50;;;;;;;-140.79;100.00;63287.88;4925246;29;20032;-74
2021/06/09 10:58:40;;;;;;;4.70;2.28;;;;;;;-140.79;100.00;63287.88;4942001;29;20035;-74
2021/06/09 11:01:07;;;;;;;4.45;2.10;;;;;;;-140.79;100.00;63287.88;4942185;29;20089;-74
2021/06/09 11:03:34;;;;;;;3.05;2.08;;;;;;;-140.79;100.00;63287.88;4940118;29;20128;-74
2021/06/09 11:06:03;;;;;;;3.00;2.40;;;;;;;-140.79;100.00;63287.88;4940792;29;20059;-74
2021/06/09 11:08:29;;;;;;;2.65;2.10;;;;;;;-140.79;100.00;63287.88;4941257;29;20027;-74
2021/06/09 11:10:55;;;;;;;3.10;2.00;;;;;;;-140.79;100.00;63287.88;4940961;29;20118;-73